This is the latest recevied weather packets stored in our database for station/object PY2UEP-1. If no packets are shown the sender has not sent any weather packets the latest 10 day(s).
| Time | Temp. | Humidity | Pressure | Rain* | Wind** | Luminosity | Snow |
|---|---|---|---|---|---|---|---|
| 1777840244 | 22.22° C | 69% | 1019.3 hPa | 0 mm | - | - | - |
| 1777839944 | 22.22° C | 69% | 1019.3 hPa | 0 mm | - | - | - |
| 1777839644 | 22.22° C | 68% | 1019.3 hPa | 0 mm | - | - | - |
| 1777839344 | 22.78° C | 68% | 1019.2 hPa | 0 mm | - | - | - |
| 1777839044 | 22.78° C | 68% | 1019.2 hPa | 0 mm | - | - | - |
| 1777838744 | 23.33° C | 67% | 1019.2 hPa | 0 mm | - | - | - |
| 1777838444 | 23.33° C | 66% | 1019.1 hPa | 0 mm | - | - | - |
| 1777838145 | 23.33° C | 66% | 1019.1 hPa | 0 mm | - | - | - |
| 1777837844 | 23.89° C | 65% | 1019.1 hPa | 0 mm | - | - | - |
| 1777837544 | 23.89° C | 65% | 1019 hPa | 0 mm | - | - | - |
| 1777837244 | 23.89° C | 65% | 1019.1 hPa | 0 mm | - | - | - |
| 1777836944 | 24.44° C | 64% | 1018.9 hPa | 0 mm | - | - | - |
| 1777836644 | 24.44° C | 62% | 1018.9 hPa | 0 mm | - | - | - |
| 1777836344 | 24.44° C | 62% | 1018.9 hPa | 0 mm | - | - | - |
| 1777836044 | 24.44° C | 61% | 1018.9 hPa | 0 mm | - | - | - |
| 1777835744 | 25° C | 62% | 1018.9 hPa | 0 mm | - | - | - |
| 1777835444 | 25° C | 61% | 1018.9 hPa | 0 mm | - | - | - |
| 1777835144 | 25° C | 61% | 1018.9 hPa | 0 mm | - | - | - |
| 1777834844 | 25° C | 61% | 1018.9 hPa | 0 mm | - | - | - |
| 1777834544 | 25° C | 61% | 1018.9 hPa | 0 mm | - | - | - |
| 1777834244 | 25° C | 61% | 1018.9 hPa | 0 mm | - | - | - |
| 1777833944 | 25° C | 61% | 1019 hPa | 0 mm | - | - | - |
| 1777833644 | 25.56° C | 61% | 1018.8 hPa | 0 mm | - | - | - |
| 1777833344 | 24.44° C | 63% | 1019 hPa | 0 mm | - | - | - |
| 1777833044 | 25° C | 62% | 1019 hPa | 0 mm | - | - | - |
* Rain since midnight (hover to see other rain measurements)
** Current wind speed in m/s (hover to see current wind gust speed)